Time;durP1;ratioP1;P1;durP2;ratioP2;P2;SDS_P1;SDS_P2;PMS_P1;PMS_P2;Temp;Humidity;BMP_temperature;BMP_pressure;BME280_temperature;BME280_humidity;BME280_pressure;Samples;Min_cycle;Max_cycle;Signal;HPM_P1;HPM_P2
2023/04/22 00:01:00;;;;;;;;;48.50;38.50;;;;;10.79;82.14;99383.19;6278151;20;2858664;-50
2023/04/22 00:03:30;;;;;;;;;16.40;12.20;;;;;10.94;80.98;99376.78;6301429;20;2805508;-50
2023/04/22 00:05:59;;;;;;;;;47.33;39.00;;;;;10.77;81.52;99376.13;6276710;20;2863951;-50
2023/04/22 00:08:28;;;;;;;;;51.33;40.33;;;;;10.82;81.59;99366.88;6311356;20;3599208;-46
2023/04/22 00:10:58;;;;;;;;;51.00;41.33;;;;;10.79;81.00;99364.41;6279529;20;2883692;-50
2023/04/22 00:13:28;;;;;;;;;51.33;43.00;;;;;10.67;82.62;99369.63;6315772;20;2865978;-48
2023/04/22 00:15:57;;;;;;;;;52.00;44.00;;;;;10.71;81.15;99373.81;6314327;20;2866968;-48
2023/04/22 00:18:26;;;;;;;;;50.50;41.00;;;;;10.44;83.72;99367.63;6313005;20;2836737;-49
2023/04/22 00:20:56;;;;;;;;;46.67;38.00;;;;;10.54;82.39;99366.91;6283168;20;3619020;-48
2023/04/22 00:23:25;;;;;;;;;47.33;39.33;;;;;10.27;84.07;99361.56;6315464;20;3603453;-46
2023/04/22 00:25:54;;;;;;;;;42.50;36.50;;;;;10.17;84.78;99365.75;6311946;20;2861757;-47
2023/04/22 00:28:24;;;;;;;;;53.00;41.00;;;;;10.36;84.14;99369.94;6281410;20;3609754;-49
2023/04/22 00:30:53;;;;;;;;;47.50;39.00;;;;;10.12;84.38;99359.84;6314673;20;2866030;-47
2023/04/22 00:33:21;;;;;;;;;48.00;39.00;;;;;9.91;85.06;99363.91;6282875;20;2845243;-48
2023/04/22 00:35:53;;;;;;;;;51.67;42.00;;;;;9.44;86.90;99366.78;6281978;20;2869038;-47
2023/04/22 00:38:23;;;;;;;;;50.50;42.50;;;;;9.41;88.28;99366.97;6314254;20;2851464;-50
2023/04/22 00:40:51;;;;;;;;;50.33;40.33;;;;;9.51;88.19;99359.25;6287513;20;3609681;-46
2023/04/22 00:43:21;;;;;;;;;50.33;39.00;;;;;9.41;88.25;99345.53;6282560;20;3609777;-48
2023/04/22 00:45:50;;;;;;;;;52.33;40.67;;;;;9.44;88.20;99353.38;6315360;20;2858597;-47
2023/04/22 00:48:21;;;;;;;;;49.67;42.00;;;;;9.38;89.17;99361.81;6312258;20;2865901;-46
2023/04/22 00:50:49;;;;;;;;;50.00;42.00;;;;;9.41;87.97;99350.91;6314795;20;2842984;-49
2023/04/22 00:53:18;;;;;;;;;51.00;42.50;;;;;9.25;88.98;99366.22;6283496;20;2853491;-46
2023/04/22 00:55:48;;;;;;;;;49.00;42.00;;;;;9.35;89.73;99361.16;6284676;20;2867101;-46
2023/04/22 00:58:21;;;;;;;;;52.33;41.67;;;;;9.42;89.56;99366.00;6315066;20;2854461;-49
2023/04/22 01:00:51;;;;;;;;;49.50;42.00;;;;;9.22;89.11;99361.91;6310870;20;2839969;-47
2023/04/22 01:03:21;;;;;;;;;54.00;45.00;;;;;8.97;91.11;99362.50;6284084;20;2849234;-50
2023/04/22 01:05:50;;;;;;;;;52.00;44.50;;;;;9.18;89.78;99355.00;6281598;20;2844107;-50
2023/04/22 01:08:18;;;;;;;;;52.00;43.00;;;;;9.17;89.54;99357.78;6281048;20;2500300;-47
2023/04/22 01:10:47;;;;;;;;;54.00;44.50;;;;;9.07;90.78;99359.28;6284101;20;2846109;-49
2023/04/22 01:13:15;;;;;;;;;49.00;41.50;;;;;9.27;89.48;99358.94;6284750;20;2853378;-48
2023/04/22 01:15:44;;;;;;;;;56.00;44.50;;;;;9.30;88.67;99364.13;6281345;20;2857561;-46
2023/04/22 01:18:14;;;;;;;;;50.50;43.00;;;;;9.32;88.67;99367.56;6283233;20;2842130;-53
2023/04/22 01:20:44;;;;;;;;;55.00;41.00;;;;;8.92;90.24;99361.06;6282547;20;2872412;-48
2023/04/22 01:23:21;;;;;;;;;49.00;39.67;;;;;9.11;90.11;99358.13;6313926;20;2892090;-48
2023/04/22 01:25:51;;;;;;;;;48.00;40.50;;;;;9.30;88.79;99366.78;6311521;20;2862805;-47
2023/04/22 01:28:20;;;;;;;;;48.33;41.00;;;;;9.08;89.42;99364.53;6279769;20;2852381;-47
2023/04/22 01:30:49;;;;;;;;;49.00;39.50;;;;;9.20;88.38;99363.81;6311327;20;2867035;-52
2023/04/22 01:33:19;;;;;;;;;47.67;40.67;;;;;8.99;89.91;99360.63;6280732;20;2873298;-51
2023/04/22 01:35:48;;;;;;;;;51.00;42.00;;;;;8.92;90.46;99359.25;6308941;20;2859762;-48
2023/04/22 01:38:18;;;;;;;;;49.00;41.33;;;;;9.10;89.58;99359.09;6284197;20;2868071;-47
2023/04/22 01:40:47;;;;;;;;;52.67;39.33;;;;;9.10;88.15;99365.31;6312633;20;3635678;-48
2023/04/22 01:43:17;;;;;;;;;50.67;40.00;;;;;8.78;88.26;99361.91;6307543;20;2869094;-46
2023/04/22 01:45:46;;;;;;;;;51.67;42.67;;;;;8.61;90.11;99376.28;6312676;20;2869118;-47
2023/04/22 01:48:16;;;;;;;;;54.67;42.00;;;;;8.84;88.71;99361.53;6308919;20;2876492;-46
2023/04/22 01:50:45;;;;;;;;;51.00;43.00;;;;;8.78;88.76;99367.25;6312295;20;2846126;-47
2023/04/22 01:53:14;;;;;;;;;55.00;43.00;;;;;9.06;87.33;99365.59;6280325;20;2879517;-48
2023/04/22 01:55:44;;;;;;;;;51.50;40.50;;;;;8.92;86.55;99361.06;6312430;20;2860766;-47
2023/04/22 01:58:13;;;;;;;;;52.50;44.50;;;;;8.76;87.67;99358.44;6279308;20;2850306;-48
2023/04/22 02:00:43;;;;;;;;;55.67;45.67;;;;;8.48;89.80;99360.09;6281767;20;2858702;-45
2023/04/22 02:03:13;;;;;;;;;50.67;42.33;;;;;8.50;90.16;99362.66;6312537;20;2866039;-47
2023/04/22 02:05:42;;;;;;;;;50.00;39.50;;;;;8.71;88.47;99357.84;6312939;20;2857084;-46
2023/04/22 02:08:12;;;;;;;;;44.00;38.33;;;;;8.57;89.39;99359.53;6279495;20;2863873;-47
2023/04/22 02:10:40;;;;;;;;;45.50;38.50;;;;;8.48;89.38;99365.44;6313386;20;2862791;-50
2023/04/22 02:13:09;;;;;;;;;44.50;37.00;;;;;8.51;89.82;99359.91;6279913;20;2851327;-46
2023/04/22 02:15:40;;;;;;;;;45.50;39.00;;;;;8.39;90.68;99368.63;6280259;20;2864886;-47
2023/04/22 02:18:10;;;;;;;;;48.50;40.00;;;;;8.43;90.35;99366.66;6279996;20;2832679;-47
2023/04/22 02:20:39;;;;;;;;;47.33;36.00;;;;;8.28;90.17;99358.53;6277000;20;3622533;-47
2023/04/22 02:23:09;;;;;;;;;51.33;37.33;;;;;8.37;89.14;99362.47;6312526;20;3624222;-45
2023/04/22 02:26:15;;;;;;;;;39.33;36.00;;;;;8.52;88.50;99372.31;6315347;20;3601385;-47
2023/04/22 02:28:45;;;;;;;;;40.50;35.50;;;;;8.58;87.57;99368.41;6280206;20;2860886;-45
2023/04/22 02:31:13;;;;;;;;;44.50;39.00;;;;;8.32;88.21;99369.88;6279861;20;2861789;-48
2023/04/22 02:33:42;;;;;;;;;47.33;39.33;;;;;8.26;89.09;99364.91;6281094;20;3615003;-50
2023/04/22 02:36:11;;;;;;;;;43.00;38.00;;;;;8.05;90.06;99365.16;6277865;20;2862788;-48
2023/04/22 02:38:40;;;;;;;;;47.00;38.00;;;;;8.06;90.58;99369.59;6277150;20;2873191;-48
2023/04/22 02:41:09;;;;;;;;;45.00;37.33;;;;;7.99;90.10;99368.19;6283654;20;3591054;-52
2023/04/22 02:43:41;;;;;;;;;48.67;40.00;;;;;7.91;90.74;99365.09;6279164;20;2863999;-50
2023/04/22 02:46:11;;;;;;;;;45.00;39.00;;;;;8.00;90.83;99364.56;6310750;20;2851317;-48
2023/04/22 02:48:42;;;;;;;;;50.67;40.00;;;;;7.85;90.88;99360.09;6278676;20;2874367;-49
2023/04/22 02:51:11;;;;;;;;;42.50;38.00;;;;;8.06;90.15;99366.06;6308688;20;2845050;-49
2023/04/22 02:53:40;;;;;;;;;48.50;38.50;;;;;8.02;90.14;99351.13;6279697;20;2495095;-46
2023/04/22 02:56:08;;;;;;;;;52.00;43.00;;;;;7.88;90.80;99360.78;6278932;20;2858606;-46
2023/04/22 02:58:37;;;;;;;;;46.50;38.50;;;;;7.68;90.70;99364.53;6278909;20;2862793;-45
2023/04/22 03:01:05;;;;;;;;;48.00;38.50;;;;;7.59;91.66;99369.56;6277041;20;2500244;-47
2023/04/22 03:03:34;;;;;;;;;52.50;41.00;;;;;7.61;92.43;99368.53;6278879;20;2870114;-49
2023/04/22 03:06:04;;;;;;;;;44.50;35.50;;;;;7.69;91.63;99363.63;6278732;20;2849280;-45
2023/04/22 03:08:32;;;;;;;;;51.50;40.50;;;;;7.88;89.98;99365.28;6281470;20;2857632;-50
2023/04/22 03:11:01;;;;;;;;;47.50;40.00;;;;;7.68;90.85;99374.38;6280763;20;2860650;-51
2023/04/22 03:13:31;;;;;;;;;52.33;43.67;;;;;7.59;92.51;99370.41;6278052;20;2858822;-47
2023/04/22 03:16:00;;;;;;;;;51.67;42.33;;;;;7.48;92.72;99362.13;6310316;20;2859739;-47
2023/04/22 03:18:29;;;;;;;;;52.50;42.00;;;;;7.39;93.10;99373.28;6308103;20;2851353;-48
2023/04/22 03:20:59;;;;;;;;;51.50;41.00;;;;;7.44;92.57;99372.09;6278076;20;2852453;-46
2023/04/22 03:23:28;;;;;;;;;55.50;45.00;;;;;7.35;93.48;99366.41;6280505;20;2867076;-49
2023/04/22 03:25:58;;;;;;;;;47.67;40.33;;;;;7.24;93.25;99370.50;6278497;20;2864964;-48
2023/04/22 03:28:27;;;;;;;;;52.00;41.00;;;;;7.13;93.87;99372.00;6311106;20;2850381;-50
2023/04/22 03:30:54;;;;;;;;;49.50;40.00;;;;;6.95;94.74;99365.81;6277349;20;2499331;-48
2023/04/22 03:33:23;;;;;;;;;49.00;41.00;;;;;6.80;96.65;99365.66;6278948;20;2874288;-46
2023/04/22 03:35:53;;;;;;;;;43.00;35.50;;;;;7.04;95.76;99370.69;6277417;20;2866016;-47
2023/04/22 03:38:21;;;;;;;;;53.00;40.00;;;;;7.09;94.53;99381.97;6275995;20;2489983;-45
2023/04/22 03:40:50;;;;;;;;;52.50;43.50;;;;;7.12;94.52;99381.81;6279366;20;2854480;-47
2023/04/22 03:43:20;;;;;;;;;49.33;41.00;;;;;7.09;94.33;99379.31;6277486;20;2875401;-46
2023/04/22 03:45:51;;;;;;;;;45.00;39.00;;;;;7.32;93.89;99388.78;6309523;20;2868041;-47
2023/04/22 03:48:20;;;;;;;;;41.50;37.00;;;;;7.22;93.65;99391.06;6283650;20;2864908;-46
2023/04/22 03:50:49;;;;;;;;;43.33;38.33;;;;;7.29;93.56;99388.06;6285125;20;2860693;-47
2023/04/22 03:53:19;;;;;;;;;46.67;37.00;;;;;7.25;93.86;99382.88;6315466;20;3609679;-47
2023/04/22 03:55:48;;;;;;;;;43.67;37.33;;;;;7.18;93.47;99391.31;6315100;20;3587837;-49
2023/04/22 03:58:17;;;;;;;;;41.00;36.00;;;;;7.25;92.06;99382.03;6313905;20;2860715;-48
2023/04/22 04:00:47;;;;;;;;;46.67;37.67;;;;;7.18;93.73;99386.81;6281497;20;2883181;-49
2023/04/22 04:03:15;;;;;;;;;47.00;37.00;;;;;7.26;91.90;99387.28;6314555;20;2487780;-47
2023/04/22 04:05:44;;;;;;;;;46.50;40.00;;;;;7.41;91.06;99392.75;6284805;20;2866004;-47
2023/04/22 04:08:13;;;;;;;;;49.00;40.50;;;;;7.59;90.23;99397.13;6282997;20;2852542;-50
2023/04/22 04:10:42;;;;;;;;;46.50;39.00;;;;;7.47;91.45;99397.78;6284106;20;2840930;-49
2023/04/22 04:13:11;;;;;;;;;52.50;41.00;;;;;7.56;90.99;99402.63;6282902;20;2873263;-51
2023/04/22 04:15:40;;;;;;;;;48.67;37.67;;;;;7.73;90.62;99404.38;6281943;20;2873233;-47
2023/04/22 04:18:10;;;;;;;;;46.67;39.00;;;;;7.81;89.21;99402.16;6311194;20;2858608;-50
2023/04/22 04:20:39;;;;;;;;;20.33;15.00;;;;;7.51;91.03;99407.34;6314258;20;2805604;-47
2023/04/22 04:23:08;;;;;;;;;47.00;40.50;;;;;7.85;90.02;99410.88;6318729;20;2870079;-47
2023/04/22 04:25:37;;;;;;;;;44.00;39.50;;;;;8.15;88.03;99400.28;6281793;20;2866938;-48
2023/04/22 04:28:10;;;;;;;;;41.00;36.00;;;;;8.30;86.86;99410.13;6282620;20;2852429;-47
2023/04/22 04:30:40;;;;;;;;;46.67;38.67;;;;;8.52;85.57;99412.44;6287078;20;3601385;-46
2023/04/22 04:33:10;;;;;;;;;43.00;38.00;;;;;8.55;86.72;99417.63;6282528;20;3605441;-46
2023/04/22 04:35:40;;;;;;;;;34.00;32.67;;;;;9.07;84.81;99416.38;6317017;20;3582606;-45
2023/04/22 04:38:09;;;;;;;;;39.50;34.00;;;;;12.22;70.93;99433.28;6315205;20;2851319;-52
2023/04/22 04:40:38;;;;;;;;;43.00;31.67;;;;;14.05;59.04;99431.03;6288120;20;3632546;-53
2023/04/22 04:43:07;;;;;;;;;30.67;30.00;;;;;15.19;53.73;99443.31;6286601;20;3585657;-51
2023/04/22 04:45:37;;;;;;;;;30.67;28.33;;;;;13.96;57.92;99435.31;6280936;20;3591976;-52
2023/04/22 04:48:06;;;;;;;;;31.67;29.00;;;;;13.43;60.09;99431.44;6316737;20;3581532;-49
2023/04/22 04:50:35;;;;;;;;;28.50;27.00;;;;;13.10;60.67;99433.03;6283541;20;2844100;-57
2023/04/22 04:53:06;;;;;;;;;32.00;26.67;;;;;12.61;63.60;99432.19;6282600;20;2848247;-52
2023/04/22 04:55:34;;;;;;;;;31.00;30.00;;;;;13.36;59.91;99429.22;6315311;20;3593057;-51
2023/04/22 04:58:04;;;;;;;;;29.67;27.67;;;;;13.37;58.74;99439.00;6278334;20;2854507;-51
2023/04/22 05:00:33;;;;;;;;;30.00;30.00;;;;;12.50;62.08;99440.19;6314810;20;3577371;-50
2023/04/22 05:03:02;;;;;;;;;30.33;30.00;;;;;11.82;65.81;99436.09;6286360;20;3585634;-50
2023/04/22 05:05:32;;;;;;;;;27.00;27.00;;;;;11.71;66.32;99441.38;6278569;20;2849222;-51
2023/04/22 05:08:00;;;;;;;;;29.00;28.67;;;;;11.94;66.12;99439.78;6316110;20;3585823;-49
2023/04/22 05:10:29;;;;;;;;;32.67;30.00;;;;;12.76;63.03;99446.34;6282732;20;3592129;-49
2023/04/22 05:12:58;;;;;;;;;28.33;26.00;;;;;14.32;57.38;99448.69;6277968;20;3585663;-50
2023/04/22 05:15:30;;;;;;;;;29.00;28.00;;;;;15.99;50.42;99454.44;6282017;20;2844006;-52
2023/04/22 05:17:59;;;;;;;;;33.00;29.00;;;;;15.23;51.70;99447.50;6280769;20;3600242;-49
2023/04/22 05:20:28;;;;;;;;;26.67;25.67;;;;;14.82;53.58;99446.41;6314421;20;3592062;-49
2023/04/22 05:22:57;;;;;;;;;32.67;27.00;;;;;14.38;54.41;99442.81;6284763;20;3622280;-52
2023/04/22 05:25:26;;;;;;;;;30.33;27.00;;;;;13.67;56.54;99452.97;6284303;20;3588815;-53
2023/04/22 05:27:55;;;;;;;;;28.33;27.67;;;;;13.35;59.36;99448.22;6281029;20;2843116;-48
2023/04/22 05:30:24;;;;;;;;;36.00;27.67;;;;;14.27;56.66;99455.34;6315742;20;3599359;-48
2023/04/22 05:32:54;;;;;;;;;28.33;26.33;;;;;15.13;53.64;99456.38;6283115;20;3596133;-51
2023/04/22 05:35:23;;;;;;;;;24.67;21.67;;;;;17.21;46.50;99457.91;6316059;20;3587745;-48
2023/04/22 05:37:51;;;;;;;;;25.67;25.33;;;;;15.36;50.68;99461.69;6280675;20;3588806;-50
2023/04/22 05:40:21;;;;;;;;;22.33;21.33;;;;;15.25;51.15;99459.06;6281551;20;2839943;-47
2023/04/22 05:42:49;;;;;;;;;29.50;26.50;;;;;16.79;46.28;99469.00;6318487;20;2734734;-49
2023/04/22 05:45:18;;;;;;;;;24.00;23.00;;;;;17.73;43.50;99468.47;6314715;20;3579534;-47
2023/04/22 05:47:47;;;;;;;;;22.00;20.67;;;;;15.39;47.67;99466.00;6280433;20;3579459;-51
2023/04/22 05:50:16;;;;;;;;;24.67;24.67;;;;;15.76;48.99;99469.97;6278615;20;3588927;-51
2023/04/22 05:52:45;;;;;;;;;25.33;24.33;;;;;15.59;49.73;99470.56;6282566;20;3592091;-54
2023/04/22 05:55:14;;;;;;;;;28.67;25.00;;;;;16.00;49.45;99472.38;6312522;20;3594107;-54
2023/04/22 05:57:43;;;;;;;;;28.00;25.67;;;;;15.65;50.50;99471.88;6283362;20;3594145;-50
2023/04/22 06:00:13;;;;;;;;;25.33;25.00;;;;;15.04;51.38;99467.97;6285284;20;3602308;-48
2023/04/22 06:02:42;;;;;;;;;27.00;25.33;;;;;14.88;53.88;99459.44;6280875;20;3602331;-48
2023/04/22 06:05:11;;;;;;;;;22.50;20.00;;;;;15.35;52.06;99476.22;6313982;20;2829429;-47
2023/04/22 06:07:40;;;;;;;;;22.00;19.50;;;;;15.55;50.63;99466.38;6280850;20;2824967;-46
2023/04/22 06:10:10;;;;;;;;;24.67;23.00;;;;;15.91;49.31;99473.22;6281112;20;3600277;-49
2023/04/22 06:12:39;;;;;;;;;23.67;23.00;;;;;16.07;49.30;99477.28;6318671;20;3580484;-49
2023/04/22 06:15:10;;;;;;;;;25.33;21.33;;;;;16.35;48.51;99482.00;6286121;20;3580500;-51
2023/04/22 06:17:39;;;;;;;;;22.00;22.00;;;;;16.15;48.49;99485.59;6285083;20;3586768;-49
2023/04/22 06:20:11;;;;;;;;;26.00;22.67;;;;;16.42;49.50;99477.72;6278478;20;2843130;-53
2023/04/22 06:22:40;;;;;;;;;20.50;20.00;;;;;16.80;47.98;99488.88;6312127;20;2835732;-51
2023/04/22 06:25:09;;;;;;;;;21.00;19.67;;;;;17.60;45.88;99490.50;6281450;20;2841977;-52
2023/04/22 06:27:38;;;;;;;;;20.00;20.00;;;;;18.43;43.28;99496.16;6312347;20;2823394;-51
2023/04/22 06:30:10;;;;;;;;;19.67;19.67;;;;;18.45;43.89;99496.88;6285877;20;3559699;-50
2023/04/22 06:32:38;;;;;;;;;20.00;19.00;;;;;20.35;40.18;99498.56;6318547;20;3566929;-53
2023/04/22 06:35:08;;;;;;;;;20.50;18.50;;;;;19.37;41.16;99495.91;6279437;20;2827351;-50
2023/04/22 06:37:37;;;;;;;;;20.00;20.00;;;;;18.30;43.23;99499.25;6285391;20;2844132;-53
2023/04/22 06:40:07;;;;;;;;;26.00;25.67;;;;;18.67;41.41;99492.03;6315926;20;3591018;-50
2023/04/22 06:42:36;;;;;;;;;19.50;15.50;;;;;22.41;34.34;99504.25;6281043;20;2823215;-52
2023/04/22 06:45:08;;;;;;;;;16.50;15.50;;;;;26.91;26.24;99523.81;6282572;20;2823280;-56
2023/04/22 06:47:37;;;;;;;;;16.33;16.00;;;;;27.14;25.92;99525.38;6283368;20;3564852;-56
2023/04/22 06:50:10;;;;;;;;;14.00;14.00;;;;;27.06;25.03;99520.06;6279013;20;3533747;-54
2023/04/22 06:52:39;;;;;;;;;17.33;17.33;;;;;27.79;23.73;99526.66;6287070;20;3565958;-55
2023/04/22 06:55:08;;;;;;;;;15.00;13.00;;;;;28.58;23.38;99530.53;6318246;20;3526307;-56
2023/04/22 06:57:37;;;;;;;;;14.67;14.67;;;;;28.55;22.58;99530.97;6315175;20;3527793;-54
2023/04/22 07:00:07;;;;;;;;;14.00;13.33;;;;;27.16;24.86;99526.03;6282921;20;3535715;-56
2023/04/22 07:02:37;;;;;;;;;60.00;48.25;;;;;28.43;23.34;99527.09;6284471;20;3615998;-57
2023/04/22 07:05:06;;;;;;;;;14.00;12.67;;;;;28.61;21.81;99524.56;6315754;20;3513832;-51
2023/04/22 07:07:35;;;;;;;;;14.67;14.33;;;;;28.99;21.12;99522.94;6312213;20;3535736;-54
2023/04/22 07:10:05;;;;;;;;;78.00;69.50;;;;;28.91;20.93;99535.09;6314450;20;4423221;-51
2023/04/22 07:12:35;;;;;;;;;17.67;17.67;;;;;28.62;21.73;99533.69;6311860;20;2826436;-51
2023/04/22 07:15:05;;;;;;;;;15.00;15.00;;;;;28.74;20.89;99534.72;6317119;20;3534674;-54
2023/04/22 07:17:34;;;;;;;;;16.00;16.00;;;;;26.82;21.87;99527.78;6315232;20;3566925;-54
2023/04/22 07:20:03;;;;;;;;;16.33;16.33;;;;;28.40;21.42;99528.38;6280318;20;3551427;-49
2023/04/22 07:22:31;;;;;;;;;16.67;16.33;;;;;29.80;20.83;99535.38;6283610;20;3555538;-51
2023/04/22 07:25:01;;;;;;;;;52.25;40.00;;;;;28.58;21.10;99529.69;6282574;20;4356489;-52
2023/04/22 07:27:30;;;;;;;;;16.50;16.00;;;;;28.52;21.24;99536.91;6314750;20;2831495;-54
2023/04/22 07:29:59;;;;;;;;;15.00;14.50;;;;;25.50;24.77;99531.13;6280736;20;2815276;-50
2023/04/22 07:32:27;;;;;;;;;16.50;15.50;;;;;21.42;29.98;99513.50;6280728;20;2819106;-51
2023/04/22 07:34:57;;;;;;;;;16.67;16.67;;;;;20.88;31.08;99516.59;6279438;20;2483653;-48
2023/04/22 07:37:26;;;;;;;;;12.33;12.33;;;;;20.59;31.65;99516.97;6313654;20;2483653;-47
2023/04/22 07:39:54;;;;;;;;;48.33;41.33;;;;;21.11;31.59;99522.28;6317038;20;3589841;-51
2023/04/22 07:42:24;;;;;;;;;28.33;28.00;;;;;21.31;30.55;99511.06;6282930;20;3592975;-47
2023/04/22 07:44:53;;;;;;;;;22.67;21.33;;;;;21.14;29.85;99513.75;6283332;20;3579554;-51
2023/04/22 07:47:22;;;;;;;;;19.00;19.00;;;;;21.63;30.90;99521.22;6283123;20;2709108;-53
2023/04/22 07:49:50;;;;;;;;;26.00;24.00;;;;;21.90;31.01;99520.00;6314190;20;3591921;-52
2023/04/22 07:52:19;;;;;;;;;18.50;15.50;;;;;21.40;30.66;99515.53;6282656;20;2822628;-53
2023/04/22 07:54:48;;;;;;;;;12.67;12.00;;;;;21.77;29.09;99520.53;6281941;20;3536207;-49
2023/04/22 07:57:20;;;;;;;;;51.67;41.00;;;;;21.81;30.40;99518.31;6281766;20;3595185;-53
2023/04/22 07:59:50;;;;;;;;;27.33;23.67;;;;;21.29;31.40;99513.13;6280749;20;3588792;-53
2023/04/22 08:02:19;;;;;;;;;34.75;30.75;;;;;21.55;30.73;99521.22;6283496;20;3602370;-48
2023/04/22 08:04:48;;;;;;;;;14.00;14.00;;;;;21.11;30.67;99518.69;6309338;20;2816943;-48
2023/04/22 08:07:18;;;;;;;;;62.75;46.25;;;;;21.34;30.72;99522.50;6282312;20;3627449;-49
2023/04/22 08:09:49;;;;;;;;;65.00;47.50;;;;;21.31;30.45;99516.53;6309134;20;1913910;-48
2023/04/22 08:12:18;;;;;;;;;21.00;18.67;;;;;21.84;30.75;99517.97;6283859;20;3569094;-50
2023/04/22 08:14:46;;;;;;;;;15.00;15.00;;;;;21.39;31.93;99522.88;6281003;20;2813816;-50
2023/04/22 08:17:15;;;;;;;;;14.00;12.67;;;;;21.38;30.65;99517.59;6280831;20;3526330;-49
2023/04/22 08:19:45;;;;;;;;;67.50;50.50;;;;;21.63;30.39;99533.00;6276700;20;1916944;-49
2023/04/22 08:22:16;;;;;;;;;22.00;21.67;;;;;21.43;31.15;99523.41;6279820;20;3584610;-49
2023/04/22 08:24:45;;;;;;;;;20.50;18.00;;;;;21.55;30.77;99524.78;6310927;20;2835686;-47
2023/04/22 08:27:14;;;;;;;;;26.33;19.67;;;;;22.34;30.28;99527.88;6276562;20;2852382;-54
2023/04/22 08:29:47;;;;;;;;;26.67;22.33;;;;;22.62;30.05;99530.16;6310752;20;3587791;-52
2023/04/22 08:32:18;;;;;;;;;20.33;19.33;;;;;22.38;30.90;99529.25;6316926;20;3578452;-53
2023/04/22 08:34:48;;;;;;;;;39.33;33.33;;;;;22.24;30.59;99524.47;6283621;20;3589889;-52
2023/04/22 08:37:21;;;;;;;;;19.33;18.33;;;;;22.61;32.10;99528.47;6314776;20;3560661;-53
2023/04/22 08:39:49;;;;;;;;;16.67;14.33;;;;;22.17;29.97;99528.88;6283941;20;3538812;-51
2023/04/22 08:42:21;;;;;;;;;20.00;17.50;;;;;22.23;28.70;99523.63;6285014;20;2823612;-50
2023/04/22 08:44:55;;;;;;;;;77.33;64.00;;;;;22.45;30.22;99532.97;6283528;20;3664822;-50
2023/04/22 08:47:25;;;;;;;;;20.00;18.00;;;;;22.52;29.11;99531.25;6317687;20;3548317;-50
2023/04/22 08:49:55;;;;;;;;;19.67;16.33;;;;;21.98;30.18;99541.88;6316883;20;3561844;-52
2023/04/22 08:52:24;;;;;;;;;26.00;24.00;;;;;22.54;29.79;99529.19;6313271;20;3598180;-52
2023/04/22 08:54:53;;;;;;;;;35.00;31.33;;;;;22.05;29.90;99521.03;6318236;20;3581499;-49
2023/04/22 08:57:23;;;;;;;;;17.00;17.00;;;;;22.26;29.21;99520.53;6283302;20;2716039;-50
2023/04/22 08:59:54;;;;;;;;;26.75;23.50;;;;;22.88;27.81;99528.03;6317304;20;3606550;-52
2023/04/22 09:02:24;;;;;;;;;17.67;17.67;;;;;22.41;29.10;99526.16;6315604;20;3558626;-49
2023/04/22 09:04:53;;;;;;;;;22.33;19.33;;;;;22.39;29.98;99525.47;6283508;20;3566927;-49
2023/04/22 09:07:26;;;;;;;;;15.67;15.33;;;;;22.07;29.18;99529.94;6285408;20;3548187;-49
2023/04/22 09:09:56;;;;;;;;;18.00;17.33;;;;;21.80;29.16;99519.34;6285609;20;3550254;-50
2023/04/22 09:12:26;;;;;;;;;35.33;30.00;;;;;22.92;29.03;99518.44;6317204;20;3590935;-49
2023/04/22 09:14:56;;;;;;;;;25.00;21.67;;;;;23.22;28.18;99521.38;6287794;20;3577350;-51
2023/04/22 09:17:37;;;;;;;;;21.67;21.00;;;;;22.77;28.38;99521.03;6285125;20;3565877;-51
2023/04/22 09:20:08;;;;;;;;;20.67;17.33;;;;;23.03;29.53;99516.34;6283980;20;3577369;-51
2023/04/22 09:22:48;;;;;;;;;20.33;17.67;;;;;22.49;28.32;99512.44;6282912;20;3569067;-49
2023/04/22 09:25:23;;;;;;;;;18.00;18.00;;;;;22.38;28.31;99511.94;6281575;20;2833683;-49
2023/04/22 09:27:57;;;;;;;;;16.33;15.67;;;;;22.35;27.70;99513.16;6283765;20;3545008;-49
2023/04/22 09:30:32;;;;;;;;;19.67;18.67;;;;;22.10;28.24;99509.59;6314922;20;2823419;-49
2023/04/22 09:33:05;;;;;;;;;16.67;16.67;;;;;22.42;28.15;99505.09;6316862;20;3561678;-48
2023/04/22 09:35:39;;;;;;;;;17.00;15.67;;;;;22.79;29.06;99501.72;6287425;20;3561107;-50
2023/04/22 09:38:11;;;;;;;;;16.00;16.00;;;;;22.21;29.85;99501.03;6286425;20;3560848;-49
2023/04/22 09:40:44;;;;;;;;;22.00;18.67;;;;;21.39;30.11;99494.72;6317542;20;3583667;-51
2023/04/22 09:43:19;;;;;;;;;20.00;18.00;;;;;22.52;29.30;99500.28;6279727;20;2822559;-47
2023/04/22 09:45:48;;;;;;;;;19.00;17.50;;;;;23.07;29.21;99509.50;6282600;20;2826388;-47
2023/04/22 09:48:19;;;;;;;;;16.00;15.33;;;;;22.69;28.61;99501.06;6282470;20;3550323;-50
2023/04/22 09:50:50;;;;;;;;;21.33;20.67;;;;;22.85;28.33;99501.00;6287253;20;3581541;-47
2023/04/22 09:53:21;;;;;;;;;17.33;16.33;;;;;22.73;28.40;99497.81;6289562;20;3556612;-48
2023/04/22 09:55:54;;;;;;;;;20.00;17.00;;;;;22.66;28.72;99495.97;6315688;20;2822099;-47
2023/04/22 09:58:24;;;;;;;;;22.00;22.00;;;;;23.72;26.95;99489.03;6284614;20;3579551;-48
2023/04/22 10:00:58;;;;;;;;;18.50;15.50;;;;;23.44;26.49;99490.41;6275470;20;2825410;-48
2023/04/22 10:03:26;;;;;;;;;14.00;14.00;;;;;22.64;28.28;99492.53;6284826;20;2814908;-50
2023/04/22 10:05:56;;;;;;;;;12.67;11.33;;;;;22.43;27.45;99473.97;6282673;20;3508719;-47
2023/04/22 10:08:25;;;;;;;;;17.00;16.33;;;;;23.92;27.17;99481.16;6316832;20;3561745;-50
2023/04/22 10:10:53;;;;;;;;;17.33;17.33;;;;;23.26;28.19;99476.16;6283522;20;3572144;-50
2023/04/22 10:13:23;;;;;;;;;19.00;17.67;;;;;23.28;27.94;99478.72;6279045;20;2831696;-48
2023/04/22 10:15:55;;;;;;;;;19.00;16.67;;;;;23.51;27.49;99473.22;6315627;20;3558624;-48
2023/04/22 10:18:28;;;;;;;;;15.00;15.00;;;;;22.37;29.03;99459.13;6281593;20;2816969;-51
2023/04/22 10:20:58;;;;;;;;;19.00;16.00;;;;;22.47;28.07;99469.88;6282646;20;2820162;-52
2023/04/22 10:23:33;;;;;;;;;18.00;18.00;;;;;22.92;28.00;99463.66;6284582;20;2825436;-48
2023/04/22 10:26:04;;;;;;;;;17.50;16.00;;;;;23.19;27.84;99462.31;6280818;20;2828416;-47
2023/04/22 10:28:33;;;;;;;;;17.50;17.50;;;;;22.72;28.22;99456.91;6282085;20;2838924;-47
2023/04/22 10:31:22;;;;;;;;;19.50;18.00;;;;;22.56;29.49;99457.84;6284753;20;2825392;-48
2023/04/22 10:34:13;;;;;;;;;16.00;16.00;;;;;23.36;29.05;99457.59;6285841;20;3549313;-50
2023/04/22 10:37:05;;;;;;;;;17.33;17.33;;;;;23.06;28.12;99456.59;6314352;20;3561709;-55
2023/04/22 10:39:35;;;;;;;;;15.33;15.33;;;;;23.00;29.13;99449.97;6285583;20;3556668;-53
2023/04/22 10:42:09;;;;;;;;;19.67;18.33;;;;;22.83;29.38;99455.66;6315321;20;3556503;-50
2023/04/22 10:44:51;;;;;;;;;17.00;14.00;;;;;22.82;28.73;99460.28;6312649;20;3541986;-51
2023/04/22 10:47:35;;;;;;;;;30.00;25.75;;;;;23.23;27.61;99460.09;6314936;20;3604562;-49
2023/04/22 10:50:26;;;;;;;;;19.00;15.00;;;;;23.21;27.76;99456.69;6318812;20;3554430;-53
2023/04/22 10:53:36;;;;;;;;;34.00;28.33;;;;;23.51;27.87;99456.78;6279768;20;3585691;-54
2023/04/22 10:56:17;;;;;;;;;26.00;25.67;;;;;23.69;26.63;99454.59;6313646;20;3596094;-51
2023/04/22 10:58:45;;;;;;;;;21.67;18.67;;;;;23.66;28.44;99454.97;6284241;20;3570126;-52
2023/04/22 11:01:15;;;;;;;;;21.00;18.50;;;;;24.01;27.07;99458.09;6283105;20;3525262;-49
2023/04/22 11:03:43;;;;;;;;;17.67;15.00;;;;;23.28;27.46;99452.19;6313911;20;3551487;-49
2023/04/22 11:06:21;;;;;;;;;16.67;16.33;;;;;23.21;26.81;99459.41;6312802;20;3569012;-53
2023/04/22 11:08:52;;;;;;;;;13.00;13.00;;;;;22.62;27.72;99453.53;6290089;20;2792009;-54
2023/04/22 11:11:21;;;;;;;;;21.33;19.00;;;;;23.22;28.53;99450.16;6312798;20;3575267;-54
2023/04/22 11:13:50;;;;;;;;;14.33;13.67;;;;;23.17;28.01;99447.09;6282713;20;3525286;-51
2023/04/22 11:16:22;;;;;;;;;24.00;22.67;;;;;23.58;26.60;99446.81;6310937;20;3581538;-53
2023/04/22 11:18:51;;;;;;;;;21.00;17.00;;;;;23.07;27.72;99449.25;6286742;20;3571127;-49